createdAt,value
2022-07-27T00:01:13.940Z,155110.72
2022-07-27T00:03:42.272Z,155061.41
2022-07-27T00:06:09.775Z,155089.91
2022-07-27T00:08:37.328Z,155047.13
2022-07-27T00:11:06.652Z,155084.75
2022-07-27T00:13:34.063Z,155057.50
2022-07-27T00:16:01.588Z,155038.03
2022-07-27T00:18:29.301Z,155063.97
2022-07-27T00:20:56.841Z,155022.47
2022-07-27T00:23:24.277Z,155004.34
2022-07-27T00:25:51.731Z,154940.78
2022-07-27T00:28:20.547Z,154936.91
2022-07-27T00:30:47.983Z,154921.34
2022-07-27T00:33:17.158Z,154942.06
2022-07-27T00:35:45.339Z,154936.91
2022-07-27T00:38:12.774Z,154865.56
2022-07-27T00:40:40.275Z,154898.03
2022-07-27T00:43:07.709Z,154723.00
2022-07-27T00:45:36.668Z,154750.22
2022-07-27T00:48:04.416Z,154685.41
2022-07-27T00:50:31.874Z,154719.13
2022-07-27T00:52:59.401Z,154690.59
2022-07-27T00:55:27.500Z,154619.28
2022-07-27T00:57:59.330Z,154647.84
2022-07-27T01:00:27.320Z,154592.09
2022-07-27T01:02:57.614Z,154568.78
2022-07-27T01:05:35.815Z,154542.88
2022-07-27T01:08:05.232Z,154579.13
2022-07-27T01:10:32.804Z,154623.19
2022-07-27T01:13:00.426Z,154643.94
2022-07-27T01:15:28.160Z,154617.97
2022-07-27T01:17:56.873Z,154680.25
2022-07-27T01:20:24.588Z,154706.16
2022-07-27T01:22:53.311Z,154760.56
2022-07-27T01:25:20.748Z,154700.94
2022-07-27T01:27:48.171Z,154726.88
2022-07-27T01:30:27.414Z,154695.81
2022-07-27T01:33:01.786Z,154717.81
2022-07-27T01:35:29.789Z,154764.44
2022-07-27T01:37:59.319Z,154663.38
2022-07-27T01:40:27.477Z,154681.56
2022-07-27T01:42:55.077Z,154713.91
2022-07-27T01:45:22.670Z,154693.19
2022-07-27T01:47:50.232Z,154755.38
2022-07-27T01:50:17.909Z,154682.78
2022-07-27T01:52:45.332Z,154711.31
2022-07-27T01:55:14.066Z,154668.59
2022-07-27T01:57:42.332Z,154681.56
2022-07-27T02:00:12.284Z,154676.34
2022-07-27T02:02:39.961Z,154721.72
2022-07-27T02:05:08.486Z,154662.09
2022-07-27T02:07:35.946Z,154643.94
2022-07-27T02:10:03.395Z,154638.78
2022-07-27T02:12:37.489Z,154607.63
2022-07-27T02:15:06.902Z,154642.63
2022-07-27T02:17:35.284Z,154700.94
2022-07-27T02:20:03.415Z,154737.22
2022-07-27T02:22:31.258Z,154664.69
2022-07-27T02:24:58.744Z,154625.78
2022-07-27T02:27:26.282Z,154612.84
2022-07-27T02:29:55.004Z,154675.03
2022-07-27T02:32:23.004Z,154654.34
2022-07-27T02:34:50.855Z,154656.91
2022-07-27T02:37:18.399Z,154667.28
2022-07-27T02:39:45.849Z,154638.78
2022-07-27T02:42:13.296Z,154664.69
2022-07-27T02:44:41.125Z,154643.94
2022-07-27T02:47:09.881Z,154654.34
2022-07-27T02:49:37.369Z,154646.53
2022-07-27T02:52:06.411Z,154660.78
2022-07-27T02:54:34.896Z,154646.53
2022-07-27T02:57:04.729Z,154656.91
2022-07-27T02:59:32.277Z,154654.34
2022-07-27T03:01:59.814Z,154646.53
2022-07-27T03:04:28.641Z,154659.50
2022-07-27T03:06:56.138Z,154646.53
2022-07-27T03:09:32.854Z,154610.22
2022-07-27T03:12:00.866Z,154649.13
2022-07-27T03:14:28.488Z,154620.59
2022-07-27T03:16:56.042Z,154620.59
2022-07-27T03:19:28.294Z,154607.63
2022-07-27T03:21:58.812Z,154667.28
2022-07-27T03:24:26.280Z,154623.19
2022-07-27T03:26:53.705Z,154628.38
2022-07-27T03:29:21.930Z,154598.59
2022-07-27T03:31:49.375Z,154573.97
2022-07-27T03:34:17.499Z,154560.97
2022-07-27T03:36:46.097Z,154627.09
2022-07-27T03:39:15.211Z,154549.31
2022-07-27T03:41:42.803Z,154516.97
2022-07-27T03:44:10.258Z,154558.44
2022-07-27T03:46:37.694Z,154571.38
2022-07-27T03:49:14.090Z,154592.09
2022-07-27T03:51:42.649Z,154542.88
2022-07-27T03:54:10.098Z,154599.88
2022-07-27T03:56:38.853Z,154535.09
2022-07-27T03:59:06.312Z,154571.38
2022-07-27T04:01:33.783Z,154531.22
2022-07-27T04:04:01.233Z,154575.22
2022-07-27T04:06:28.726Z,154516.97
2022-07-27T04:08:59.732Z,154542.88
2022-07-27T04:11:36.263Z,154526.03
2022-07-27T04:14:06.602Z,154532.53
2022-07-27T04:16:36.262Z,154502.75
2022-07-27T04:19:03.960Z,154511.78
2022-07-27T04:21:33.566Z,154511.78
2022-07-27T04:24:01.593Z,154488.50
2022-07-27T04:26:29.119Z,154488.50
2022-07-27T04:28:56.731Z,154545.47
2022-07-27T04:31:25.498Z,154482.00
2022-07-27T04:33:53.139Z,154505.34
2022-07-27T04:36:20.549Z,154465.19
2022-07-27T04:38:50.574Z,154454.81
2022-07-27T04:41:18.065Z,154491.09
2022-07-27T04:43:45.482Z,154520.84
2022-07-27T04:46:15.571Z,154493.63
2022-07-27T04:48:49.482Z,154516.97
2022-07-27T04:51:18.006Z,154535.09
2022-07-27T04:53:53.350Z,154506.63
2022-07-27T04:56:26.406Z,154520.84
2022-07-27T04:58:53.984Z,154537.69
2022-07-27T05:01:22.907Z,154488.50
2022-07-27T05:03:52.041Z,154540.28
2022-07-27T05:06:20.080Z,154509.19
2022-07-27T05:08:47.630Z,154535.09
2022-07-27T05:11:15.214Z,154528.63
2022-07-27T05:13:42.636Z,154502.75
2022-07-27T05:16:10.694Z,154432.81
2022-07-27T05:18:38.873Z,154466.44
2022-07-27T05:21:09.570Z,154548.03
2022-07-27T05:23:37.485Z,154524.72
2022-07-27T05:26:05.129Z,154501.44
2022-07-27T05:28:32.583Z,154506.63
2022-07-27T05:31:00.295Z,154513.09
2022-07-27T05:33:27.732Z,154516.97
2022-07-27T05:35:56.343Z,154553.22
2022-07-27T05:38:25.102Z,154514.38
2022-07-27T05:40:53.115Z,154524.72
2022-07-27T05:43:21.718Z,154506.63
2022-07-27T05:45:49.238Z,154509.19
2022-07-27T05:48:16.818Z,154532.53
2022-07-27T05:50:44.444Z,154583.03
2022-07-27T05:53:12.897Z,154541.59
2022-07-27T05:55:58.455Z,154559.72
2022-07-27T05:58:27.544Z,154623.19
2022-07-27T06:00:56.596Z,154646.53
2022-07-27T06:03:24.367Z,154649.13
2022-07-27T06:05:52.079Z,154656.91
2022-07-27T06:08:18.544Z,154695.81
2022-07-27T06:10:47.273Z,154708.75
2022-07-27T06:13:14.697Z,154734.66
2022-07-27T06:15:42.325Z,154794.25
2022-07-27T06:18:18.007Z,154751.47
2022-07-27T06:20:45.757Z,154825.38
2022-07-27T06:23:13.341Z,154763.19
2022-07-27T06:25:40.786Z,154689.31
2022-07-27T06:28:09.687Z,154706.16
2022-07-27T06:30:37.150Z,154695.81
2022-07-27T06:33:06.062Z,154708.75
2022-07-27T06:35:34.021Z,154733.38
2022-07-27T06:38:01.599Z,154706.16
2022-07-27T06:40:30.161Z,154763.19
2022-07-27T06:42:58.254Z,154706.16
2022-07-27T06:45:27.156Z,154732.06
2022-07-27T06:47:54.694Z,154752.78
2022-07-27T06:50:22.792Z,154799.44
2022-07-27T06:52:50.403Z,154804.59
2022-07-27T06:55:18.030Z,154811.09
2022-07-27T06:57:46.481Z,154843.53
2022-07-27T07:00:15.527Z,154873.34
2022-07-27T07:02:53.783Z,154874.66
2022-07-27T07:05:21.380Z,154907.09
2022-07-27T07:07:48.815Z,154869.50
2022-07-27T07:10:16.428Z,154808.50
2022-07-27T07:12:43.925Z,154700.94
2022-07-27T07:15:13.281Z,154630.94
2022-07-27T07:17:41.173Z,154737.22
2022-07-27T07:20:11.281Z,154872.09
2022-07-27T07:22:38.769Z,154908.38
2022-07-27T07:25:06.480Z,154973.19
2022-07-27T07:27:34.201Z,154821.47
2022-07-27T07:30:02.657Z,154763.19
2022-07-27T07:32:33.612Z,154703.56
2022-07-27T07:35:03.623Z,154750.22
2022-07-27T07:37:34.074Z,154716.50
2022-07-27T07:40:32.162Z,154737.22
2022-07-27T07:42:51.068Z,154802.06
2022-07-27T07:45:18.490Z,154852.59
2022-07-27T07:47:46.104Z,154875.97
2022-07-27T07:50:13.592Z,154857.78
2022-07-27T07:52:42.455Z,154898.03
2022-07-27T07:55:10.664Z,154831.81
2022-07-27T07:57:39.109Z,154840.94
2022-07-27T08:00:09.158Z,154822.75
2022-07-27T08:02:45.124Z,154713.91
2022-07-27T08:05:12.839Z,154737.22
2022-07-27T08:07:42.488Z,154700.94
2022-07-27T08:10:11.704Z,154765.72
2022-07-27T08:12:40.953Z,154699.66
2022-07-27T08:15:09.691Z,154737.22
2022-07-27T08:17:37.158Z,154763.19
2022-07-27T08:20:06.628Z,154807.22
2022-07-27T08:22:35.572Z,154838.31
2022-07-27T08:25:05.034Z,154848.69
2022-07-27T08:27:40.340Z,154862.94
2022-07-27T08:30:10.562Z,154887.63
2022-07-27T08:32:53.647Z,154809.81
2022-07-27T08:35:22.116Z,154741.13
2022-07-27T08:37:49.550Z,154765.72
2022-07-27T08:43:07.876Z,154944.66
2022-07-27T08:45:37.171Z,154952.47
2022-07-27T08:48:05.346Z,155001.72
2022-07-27T08:50:34.565Z,155056.19
2022-07-27T08:53:04.170Z,155092.56
2022-07-27T08:55:35.171Z,155001.72
2022-07-27T08:58:04.119Z,154923.94
2022-07-27T09:00:33.102Z,155026.38
2022-07-27T09:03:01.151Z,155049.69
2022-07-27T09:05:37.698Z,155150.94
2022-07-27T09:08:13.251Z,155110.72
2022-07-27T09:10:42.911Z,155031.56
2022-07-27T09:13:22.323Z,155038.03
2022-07-27T09:18:40.037Z,155066.56
2022-07-27T09:21:12.898Z,155079.53
2022-07-27T09:23:42.050Z,155137.97
2022-07-27T09:26:31.066Z,155109.44
2022-07-27T09:29:01.255Z,155126.31
2022-07-27T09:31:29.497Z,155126.31
2022-07-27T09:34:00.664Z,155178.19
2022-07-27T09:36:29.950Z,155193.75
2022-07-27T09:39:03.025Z,155134.06
2022-07-27T09:41:42.924Z,154988.75
2022-07-27T09:46:59.444Z,155134.06
2022-07-27T09:49:29.909Z,155012.09
2022-07-27T09:52:00.563Z,155057.50
2022-07-27T09:54:41.968Z,155121.09
2022-07-27T09:57:11.197Z,155197.66
2022-07-27T09:59:38.715Z,155274.19
2022-07-27T10:02:06.883Z,155259.94
2022-07-27T10:04:35.350Z,155239.13
2022-07-27T10:07:06.327Z,155188.53
2022-07-27T10:09:35.774Z,155176.88
2022-07-27T10:12:04.687Z,155235.28
2022-07-27T10:14:35.147Z,155463.75
2022-07-27T10:17:03.504Z,155375.47
2022-07-27T10:19:39.425Z,155341.72
2022-07-27T10:22:06.855Z,155226.16
2022-07-27T10:24:36.924Z,155313.19
2022-07-27T10:27:20.009Z,155362.47
2022-07-27T10:29:50.484Z,155580.66
2022-07-27T10:32:24.844Z,155455.94
2022-07-27T10:34:52.343Z,155484.50
2022-07-27T10:37:26.524Z,155515.72
2022-07-27T10:40:15.879Z,155435.19
2022-07-27T10:42:43.794Z,155544.31
2022-07-27T10:45:14.433Z,155602.75
2022-07-27T10:47:45.621Z,155307.97
2022-07-27T10:50:24.977Z,155274.19
2022-07-27T10:52:54.638Z,155288.47
2022-07-27T10:55:47.890Z,155294.94
2022-07-27T10:58:43.735Z,155370.28
2022-07-27T11:01:14.495Z,155378.06
2022-07-27T11:03:47.456Z,155393.66
2022-07-27T11:10:00.094Z,155319.69
2022-07-27T11:11:57.414Z,155506.63
2022-07-27T11:14:31.350Z,155530.03
2022-07-27T11:17:24.310Z,155667.69
2022-07-27T11:19:55.239Z,155765.19
2022-07-27T11:23:08.846Z,155669.00
2022-07-27T11:25:20.663Z,155597.56
2022-07-27T11:27:49.163Z,155596.25
2022-07-27T11:30:24.839Z,155785.97
2022-07-27T11:32:54.345Z,155854.84
2022-07-27T11:35:21.826Z,155832.78
2022-07-27T11:38:00.345Z,155792.50
2022-07-27T11:40:59.923Z,155676.78
2022-07-27T11:43:33.586Z,155728.78
2022-07-27T11:46:16.678Z,155694.97
2022-07-27T11:49:10.236Z,155869.16
2022-07-27T11:51:39.840Z,155952.38
2022-07-27T11:54:09.279Z,155648.19
2022-07-27T11:56:38.605Z,155722.31
2022-07-27T11:59:12.044Z,155594.94
2022-07-27T12:01:41.657Z,155704.06
2022-07-27T12:04:22.104Z,155828.84
2022-07-27T12:07:05.764Z,155726.22
2022-07-27T12:09:38.180Z,155581.97
2022-07-27T12:12:15.562Z,155678.09
2022-07-27T12:14:45.896Z,155554.69
2022-07-27T12:17:28.080Z,155533.94
2022-07-27T12:20:08.019Z,155659.88
2022-07-27T12:22:37.838Z,155767.75
2022-07-27T12:25:16.091Z,155788.56
2022-07-27T12:27:54.738Z,155793.78
2022-07-27T12:30:29.805Z,155671.63
2022-07-27T12:32:57.473Z,155523.50
2022-07-27T12:35:34.304Z,155635.22
2022-07-27T12:38:06.206Z,155788.56
2022-07-27T12:40:35.293Z,155793.78
2022-07-27T12:43:06.427Z,155758.69
2022-07-27T12:45:36.906Z,155752.22
2022-07-27T12:48:09.225Z,155783.34
2022-07-27T12:50:39.991Z,155830.16
2022-07-27T12:53:08.492Z,155809.34
2022-07-27T12:55:36.841Z,155875.66
2022-07-27T12:58:04.608Z,155905.56
2022-07-27T13:00:33.943Z,155863.94
2022-07-27T13:03:02.827Z,155860.06
2022-07-27T13:05:31.530Z,155921.19
2022-07-27T13:08:01.116Z,155960.16
2022-07-27T13:10:28.829Z,155970.59
2022-07-27T13:12:56.419Z,155971.88
2022-07-27T13:15:23.881Z,156029.06
2022-07-27T13:17:51.337Z,156053.78
2022-07-27T13:20:19.380Z,155888.66
2022-07-27T13:22:47.481Z,155961.47
2022-07-27T13:25:17.534Z,155929.00
2022-07-27T13:27:45.987Z,156064.22
2022-07-27T13:30:15.813Z,156035.59
2022-07-27T13:32:44.013Z,156035.59
2022-07-27T13:35:13.145Z,156007.00
2022-07-27T13:37:41.240Z,155940.69
2022-07-27T13:40:09.806Z,156005.69
2022-07-27T13:42:38.952Z,156010.91
2022-07-27T13:45:10.326Z,156066.78
2022-07-27T13:47:39.341Z,155991.38
2022-07-27T13:50:15.098Z,155997.91
2022-07-27T13:52:45.104Z,155962.78
2022-07-27T13:55:14.072Z,156021.28
2022-07-27T13:57:43.189Z,156035.59
2022-07-27T14:00:11.892Z,156075.91
2022-07-27T14:02:39.660Z,156118.88
2022-07-27T14:05:08.538Z,155984.91
2022-07-27T14:07:36.056Z,155951.09
2022-07-27T14:10:22.229Z,155904.25
2022-07-27T14:12:55.469Z,155905.56
2022-07-27T14:15:25.842Z,155999.16
2022-07-27T14:17:53.615Z,155909.50
2022-07-27T14:20:21.703Z,155793.78
2022-07-27T14:22:49.130Z,155782.06
2022-07-27T14:25:16.745Z,155853.53
2022-07-27T14:27:44.182Z,155862.66
2022-07-27T14:30:18.708Z,155960.16
2022-07-27T14:32:48.087Z,156031.69
2022-07-27T14:35:15.700Z,155919.88
2022-07-27T14:37:43.158Z,155793.78
2022-07-27T14:40:12.028Z,155728.78
2022-07-27T14:42:39.559Z,155697.59
2022-07-27T14:45:08.185Z,155778.19
2022-07-27T14:47:37.259Z,155741.78
2022-07-27T14:50:05.220Z,155724.91
2022-07-27T14:52:32.702Z,155688.47
2022-07-27T14:55:01.791Z,155643.03
2022-07-27T14:57:29.269Z,155715.78
2022-07-27T14:59:56.885Z,155723.63
2022-07-27T15:02:24.830Z,155804.16
2022-07-27T15:04:53.635Z,155789.88
2022-07-27T15:07:21.586Z,155787.28
2022-07-27T15:09:48.996Z,155780.81
2022-07-27T15:12:16.410Z,155826.25
2022-07-27T15:14:43.981Z,155850.94
2022-07-27T15:17:11.379Z,155849.63
2022-07-27T15:19:38.811Z,155801.56
2022-07-27T15:22:07.655Z,155791.19
2022-07-27T15:24:38.220Z,155814.56
2022-07-27T15:27:06.006Z,155840.53
2022-07-27T15:29:33.677Z,155834.06
2022-07-27T15:32:01.147Z,155892.53
2022-07-27T15:34:28.590Z,155874.38
2022-07-27T15:36:56.064Z,155870.44
2022-07-27T15:39:24.971Z,155865.22
2022-07-27T15:41:52.455Z,155865.22
2022-07-27T15:44:21.019Z,155858.75
2022-07-27T15:46:49.054Z,155808.09
2022-07-27T15:49:17.359Z,155887.34
2022-07-27T15:51:45.125Z,155845.75
2022-07-27T15:54:12.601Z,155821.09
2022-07-27T15:56:41.646Z,155823.63
2022-07-27T15:59:09.348Z,155835.38
2022-07-27T16:01:37.030Z,155849.63
2022-07-27T16:04:06.241Z,155876.91
2022-07-27T16:06:38.785Z,155925.09
2022-07-27T16:09:09.207Z,155910.78
2022-07-27T16:11:37.377Z,155945.88
2022-07-27T16:14:06.143Z,155962.78
2022-07-27T16:16:33.646Z,155903.00
2022-07-27T16:19:12.300Z,155879.53
2022-07-27T16:21:55.037Z,155791.19
2022-07-27T16:24:23.853Z,155852.25
2022-07-27T16:26:51.335Z,155798.97
2022-07-27T16:29:20.157Z,155711.94
2022-07-27T16:31:47.698Z,155785.97
2022-07-27T16:34:15.198Z,155806.78
2022-07-27T16:36:42.726Z,155806.78
2022-07-27T16:39:10.521Z,155801.56
2022-07-27T16:41:38.596Z,155765.19
2022-07-27T16:44:06.529Z,155752.22
2022-07-27T16:46:35.460Z,155736.59
2022-07-27T16:49:03.447Z,155739.22
2022-07-27T16:51:30.919Z,155757.38
2022-07-27T16:53:58.359Z,155731.41
2022-07-27T16:56:26.092Z,155734.00
2022-07-27T16:58:53.512Z,155736.59
2022-07-27T17:01:26.070Z,155709.31
2022-07-27T17:03:56.289Z,155678.09
2022-07-27T17:06:24.543Z,155667.69
2022-07-27T17:08:52.603Z,155648.19
2022-07-27T17:11:21.973Z,155632.59
2022-07-27T17:13:50.031Z,155661.19
2022-07-27T17:16:18.021Z,155652.09
2022-07-27T17:18:45.770Z,155614.44
2022-07-27T17:21:14.833Z,155606.63
2022-07-27T17:23:43.845Z,155596.25
2022-07-27T17:26:12.244Z,155562.50
2022-07-27T17:28:40.631Z,155570.28
2022-07-27T17:31:10.625Z,155568.97
2022-07-27T17:33:38.953Z,155562.50
2022-07-27T17:36:12.350Z,155541.69
2022-07-27T17:38:44.381Z,155533.94
2022-07-27T17:41:12.439Z,155554.69
2022-07-27T17:43:39.907Z,155539.09
2022-07-27T17:46:07.719Z,155507.91
2022-07-27T17:48:35.496Z,155498.78
2022-07-27T17:51:03.288Z,155468.91
2022-07-27T17:53:30.795Z,155458.53
2022-07-27T17:56:00.588Z,155401.41
2022-07-27T17:58:30.146Z,155414.44
2022-07-27T18:00:58.242Z,155396.25
2022-07-27T18:03:25.708Z,155372.91
2022-07-27T18:05:53.285Z,155313.19
2022-07-27T18:08:20.745Z,155336.53
2022-07-27T18:10:48.582Z,155354.72
2022-07-27T18:13:17.317Z,155349.50
2022-07-27T18:15:48.002Z,155393.66
2022-07-27T18:18:16.347Z,155407.94
2022-07-27T18:20:44.997Z,155365.09
2022-07-27T18:23:12.548Z,155319.69
2022-07-27T18:25:39.977Z,155294.94
2022-07-27T18:28:07.505Z,155263.81
2022-07-27T18:30:36.458Z,155237.88
2022-07-27T18:33:03.994Z,155253.41
2022-07-27T18:35:31.548Z,155204.13
2022-07-27T18:37:58.953Z,155209.34
2022-07-27T18:40:26.667Z,155224.84
2022-07-27T18:42:54.105Z,155230.06
2022-07-27T18:45:21.514Z,155222.31
2022-07-27T18:47:53.223Z,155183.38
2022-07-27T18:50:20.637Z,155145.72
2022-07-27T18:52:49.261Z,155156.16
2022-07-27T18:55:21.210Z,155131.47
2022-07-27T18:57:48.804Z,155139.25
2022-07-27T19:00:16.672Z,155102.91
2022-07-27T19:02:44.146Z,155069.16
2022-07-27T19:05:15.544Z,155030.25
2022-07-27T19:07:49.929Z,155022.47
2022-07-27T19:10:17.701Z,155035.44
2022-07-27T19:12:45.174Z,155079.53
2022-07-27T19:15:12.670Z,154988.75
2022-07-27T19:17:40.067Z,155001.72
2022-07-27T19:20:09.295Z,154962.84
2022-07-27T19:22:41.625Z,154927.81
2022-07-27T19:25:09.741Z,154903.19
2022-07-27T19:27:38.438Z,154903.19
2022-07-27T19:30:06.796Z,154874.66
2022-07-27T19:32:34.251Z,154895.44
2022-07-27T19:35:01.702Z,154856.50
2022-07-27T19:37:30.968Z,154805.91
2022-07-27T19:40:14.411Z,154795.56
2022-07-27T19:42:47.309Z,154761.88
2022-07-27T19:45:14.821Z,154729.47
2022-07-27T19:47:42.291Z,154723.00
2022-07-27T19:50:10.604Z,154682.78
2022-07-27T19:52:38.202Z,154662.09
2022-07-27T19:55:07.926Z,154654.34
2022-07-27T19:57:35.341Z,154610.22
2022-07-27T20:00:05.351Z,154577.84
2022-07-27T20:02:32.797Z,154588.19
2022-07-27T20:05:00.631Z,154571.38
2022-07-27T20:07:28.086Z,154528.63
2022-07-27T20:09:55.542Z,154501.44
2022-07-27T20:12:25.331Z,154443.16
2022-07-27T20:14:52.773Z,154492.41
2022-07-27T20:17:20.183Z,154506.63
2022-07-27T20:19:47.721Z,154409.53
2022-07-27T20:22:15.224Z,154395.28
2022-07-27T20:24:42.715Z,154379.69
2022-07-27T20:27:10.136Z,154362.84
2022-07-27T20:29:40.924Z,154352.50
2022-07-27T20:32:08.468Z,154318.81
2022-07-27T20:34:35.965Z,154286.50
2022-07-27T20:37:03.359Z,154273.56
2022-07-27T20:39:30.819Z,154273.56
2022-07-27T20:41:58.602Z,154212.72
2022-07-27T20:44:27.547Z,154179.09
2022-07-27T20:46:56.299Z,154208.88
2022-07-27T20:49:24.844Z,154172.59
2022-07-27T20:51:52.420Z,154177.81
2022-07-27T20:54:29.447Z,154149.34
2022-07-27T20:56:57.344Z,154146.75
2022-07-27T20:59:24.878Z,154135.06
2022-07-27T21:01:52.624Z,154104.00
2022-07-27T21:04:22.018Z,154043.22
2022-07-27T21:06:50.747Z,154098.84
2022-07-27T21:09:18.334Z,154126.00
2022-07-27T21:11:45.768Z,154084.63
2022-07-27T21:14:13.283Z,153994.06
2022-07-27T21:16:41.867Z,153952.66
2022-07-27T21:19:09.880Z,153963.06
2022-07-27T21:21:38.779Z,154050.97
2022-07-27T21:24:20.875Z,153970.78
2022-07-27T21:26:51.128Z,153928.13
2022-07-27T21:29:19.643Z,153942.34
2022-07-27T21:31:49.127Z,153916.50
2022-07-27T21:34:19.713Z,153928.13
2022-07-27T21:36:49.454Z,153924.28
2022-07-27T21:39:17.877Z,153860.84
2022-07-27T21:41:45.881Z,153836.28
2022-07-27T21:44:13.807Z,153882.91
2022-07-27T21:46:41.623Z,153884.19
2022-07-27T21:49:10.245Z,153903.56
2022-07-27T21:51:37.830Z,153880.31
2022-07-27T21:54:07.329Z,153877.72
2022-07-27T21:56:41.068Z,153866.09
2022-07-27T21:59:09.417Z,153806.56
2022-07-27T22:01:36.895Z,153841.47
2022-07-27T22:04:04.537Z,153761.38
2022-07-27T22:06:31.994Z,153748.44
2022-07-27T22:08:59.404Z,153802.72
2022-07-27T22:11:28.166Z,153726.44
2022-07-27T22:13:55.700Z,153624.41
2022-07-27T22:16:23.306Z,153735.53
2022-07-27T22:18:50.950Z,153720.00
2022-07-27T22:21:18.358Z,153751.00
2022-07-27T22:23:49.005Z,153761.38
2022-07-27T22:26:17.364Z,153740.66
2022-07-27T22:28:46.110Z,153725.16
2022-07-27T22:31:21.799Z,153695.47
2022-07-27T22:33:49.558Z,153650.25
2022-07-27T22:36:16.977Z,153703.19
2022-07-27T22:38:44.416Z,153699.31
2022-07-27T22:41:11.832Z,153668.34
2022-07-27T22:43:39.430Z,153714.81
2022-07-27T22:46:08.357Z,153657.97
2022-07-27T22:48:35.942Z,153660.56
2022-07-27T22:51:03.442Z,153634.72
2022-07-27T22:53:30.913Z,153657.97
2022-07-27T22:55:58.462Z,153700.59
2022-07-27T22:58:25.887Z,153634.72
2022-07-27T23:00:58.935Z,153637.31
2022-07-27T23:03:28.372Z,153657.97
2022-07-27T23:05:55.808Z,153648.94
2022-07-27T23:08:23.238Z,153606.31
2022-07-27T23:10:50.671Z,153639.91
2022-07-27T23:13:20.301Z,153681.25
2022-07-27T23:15:48.199Z,153657.97
2022-07-27T23:18:16.549Z,153627.00
2022-07-27T23:20:45.699Z,153630.84
2022-07-27T23:23:16.097Z,153672.19
2022-07-27T23:25:44.767Z,153663.16
2022-07-27T23:28:12.420Z,153589.50
2022-07-27T23:30:40.149Z,153585.66
2022-07-27T23:33:07.585Z,153528.78
2022-07-27T23:35:35.352Z,153530.06
2022-07-27T23:38:04.258Z,153546.88
2022-07-27T23:40:31.827Z,153527.47
2022-07-27T23:42:59.269Z,153505.56
2022-07-27T23:45:27.394Z,153461.63
2022-07-27T23:47:54.866Z,153430.63
2022-07-27T23:50:22.796Z,153413.84
2022-07-27T23:52:50.260Z,153417.72
2022-07-27T23:55:19.074Z,153425.50
2022-07-27T23:57:47.150Z,153462.94
